sensor_id;sensor_type;location;lat;lon;timestamp;pressure;altitude;pressure_sealevel;temperature;humidity
59767;BME280;46248;58.364;25.582;2022-09-13T00:02:12;100676.13;;;10.01;76.59
59767;BME280;46248;58.364;25.582;2022-09-13T00:05:37;100670.13;;;9.99;77.02
59767;BME280;46248;58.364;25.582;2022-09-13T00:09:02;100672.81;;;9.97;77.29
59767;BME280;46248;58.364;25.582;2022-09-13T00:12:25;100670.13;;;9.99;77.15
59767;BME280;46248;58.364;25.582;2022-09-13T00:15:49;100671.88;;;9.98;77.42
59767;BME280;46248;58.364;25.582;2022-09-13T00:19:12;100671.19;;;9.95;77.33
59767;BME280;46248;58.364;25.582;2022-09-13T00:22:35;100663.28;;;9.96;77.36
59767;BME280;46248;58.364;25.582;2022-09-13T00:26:08;100672.66;;;10.00;77.81
59767;BME280;46248;58.364;25.582;2022-09-13T00:29:31;100670.88;;;10.01;77.66
59767;BME280;46248;58.364;25.582;2022-09-13T00:32:55;100663.81;;;10.03;77.55
59767;BME280;46248;58.364;25.582;2022-09-13T00:36:18;100659.53;;;10.02;77.42
59767;BME280;46248;58.364;25.582;2022-09-13T00:39:41;100655.28;;;9.99;77.50
59767;BME280;46248;58.364;25.582;2022-09-13T00:43:16;100658.75;;;10.00;77.78
59767;BME280;46248;58.364;25.582;2022-09-13T00:46:41;100657.97;;;9.98;77.72
59767;BME280;46248;58.364;25.582;2022-09-13T00:50:11;100656.28;;;9.97;77.91
59767;BME280;46248;58.364;25.582;2022-09-13T00:53:38;100660.56;;;9.98;77.51
59767;BME280;46248;58.364;25.582;2022-09-13T00:57:04;100658.19;;;9.93;77.77
59767;BME280;46248;58.364;25.582;2022-09-13T01:00:29;100663.19;;;9.98;77.82
59767;BME280;46248;58.364;25.582;2022-09-13T01:03:52;100671.72;;;10.01;77.54
59767;BME280;46248;58.364;25.582;2022-09-13T01:07:18;100662.16;;;10.02;77.48
59767;BME280;46248;58.364;25.582;2022-09-13T01:10:41;100656.03;;;10.01;77.70
59767;BME280;46248;58.364;25.582;2022-09-13T01:14:06;100650.75;;;10.03;77.65
59767;BME280;46248;58.364;25.582;2022-09-13T01:17:33;100647.56;;;9.96;77.66
59767;BME280;46248;58.364;25.582;2022-09-13T01:21:16;100650.47;;;9.90;77.21
59767;BME280;46248;58.364;25.582;2022-09-13T01:25:00;100646.44;;;9.83;77.26
59767;BME280;46248;58.364;25.582;2022-09-13T01:29:08;100641.47;;;9.77;77.55
59767;BME280;46248;58.364;25.582;2022-09-13T01:32:46;100636.63;;;9.69;77.66
59767;BME280;46248;58.364;25.582;2022-09-13T01:36:25;100644.53;;;9.68;78.46
59767;BME280;46248;58.364;25.582;2022-09-13T01:40:03;100622.66;;;9.50;78.72
59767;BME280;46248;58.364;25.582;2022-09-13T01:43:38;100640.69;;;9.56;78.86
59767;BME280;46248;58.364;25.582;2022-09-13T01:47:09;100635.47;;;9.56;78.97
59767;BME280;46248;58.364;25.582;2022-09-13T01:50:41;100628.78;;;9.50;79.52
59767;BME280;46248;58.364;25.582;2022-09-13T01:54:12;100638.22;;;9.53;79.59
59767;BME280;46248;58.364;25.582;2022-09-13T01:57:40;100652.16;;;9.53;79.85
59767;BME280;46248;58.364;25.582;2022-09-13T02:01:09;100655.63;;;9.54;79.68
59767;BME280;46248;58.364;25.582;2022-09-13T02:04:37;100646.28;;;9.48;79.65
59767;BME280;46248;58.364;25.582;2022-09-13T02:08:09;100648.09;;;9.46;80.03
59767;BME280;46248;58.364;25.582;2022-09-13T02:11:37;100649.97;;;9.44;79.75
59767;BME280;46248;58.364;25.582;2022-09-13T02:15:03;100639.50;;;9.44;79.81
59767;BME280;46248;58.364;25.582;2022-09-13T02:18:32;100634.28;;;9.44;80.07
59767;BME280;46248;58.364;25.582;2022-09-13T02:21:58;100628.97;;;9.46;79.67
59767;BME280;46248;58.364;25.582;2022-09-13T02:25:24;100630.59;;;9.48;78.85
59767;BME280;46248;58.364;25.582;2022-09-13T02:28:50;100632.16;;;9.52;79.43
59767;BME280;46248;58.364;25.582;2022-09-13T02:32:16;100631.25;;;9.53;79.72
59767;BME280;46248;58.364;25.582;2022-09-13T02:35:47;100617.56;;;9.47;79.42
59767;BME280;46248;58.364;25.582;2022-09-13T02:39:13;100618.66;;;9.43;79.72
59767;BME280;46248;58.364;25.582;2022-09-13T02:42:42;100620.19;;;9.47;79.75
59767;BME280;46248;58.364;25.582;2022-09-13T02:46:14;100616.13;;;9.41;79.99
59767;BME280;46248;58.364;25.582;2022-09-13T02:49:48;100617.81;;;9.42;79.64
59767;BME280;46248;58.364;25.582;2022-09-13T02:53:22;100616.16;;;9.39;80.31
59767;BME280;46248;58.364;25.582;2022-09-13T02:56:51;100615.38;;;9.37;80.20
59767;BME280;46248;58.364;25.582;2022-09-13T03:00:17;100610.28;;;9.34;80.65
59767;BME280;46248;58.364;25.582;2022-09-13T03:03:40;100614.75;;;9.32;80.65
59767;BME280;46248;58.364;25.582;2022-09-13T03:07:05;100610.44;;;9.31;80.51
59767;BME280;46248;58.364;25.582;2022-09-13T03:10:39;100607.69;;;9.34;80.58
59767;BME280;46248;58.364;25.582;2022-09-13T03:14:19;100596.59;;;9.29;81.03
59767;BME280;46248;58.364;25.582;2022-09-13T03:17:53;100594.13;;;9.26;80.89
59767;BME280;46248;58.364;25.582;2022-09-13T03:21:33;100592.97;;;9.32;81.17
59767;BME280;46248;58.364;25.582;2022-09-13T03:25:06;100594.63;;;9.34;81.22
59767;BME280;46248;58.364;25.582;2022-09-13T03:28:38;100592.00;;;9.34;81.41
59767;BME280;46248;58.364;25.582;2022-09-13T03:32:15;100592.09;;;9.33;81.87
59767;BME280;46248;58.364;25.582;2022-09-13T03:35:53;100575.56;;;9.32;81.73
59767;BME280;46248;58.364;25.582;2022-09-13T03:39:21;100578.22;;;9.31;81.67
59767;BME280;46248;58.364;25.582;2022-09-13T03:42:51;100575.69;;;9.29;81.68
59767;BME280;46248;58.364;25.582;2022-09-13T03:46:19;100570.38;;;9.31;82.68
59767;BME280;46248;58.364;25.582;2022-09-13T03:49:45;100558.38;;;9.27;82.49
59767;BME280;46248;58.364;25.582;2022-09-13T03:53:10;100566.09;;;9.30;82.59
59767;BME280;46248;58.364;25.582;2022-09-13T03:56:35;100570.25;;;9.34;82.62
59767;BME280;46248;58.364;25.582;2022-09-13T03:59:58;100564.13;;;9.35;82.35
59767;BME280;46248;58.364;25.582;2022-09-13T04:03:21;100562.91;;;9.42;82.32
59767;BME280;46248;58.364;25.582;2022-09-13T04:06:44;100548.88;;;9.45;82.12
59767;BME280;46248;58.364;25.582;2022-09-13T04:10:09;100547.09;;;9.45;81.93
59767;BME280;46248;58.364;25.582;2022-09-13T04:13:33;100538.13;;;9.51;82.28
59767;BME280;46248;58.364;25.582;2022-09-13T04:16:56;100543.22;;;9.54;81.84
59767;BME280;46248;58.364;25.582;2022-09-13T04:20:19;100541.50;;;9.53;82.04
59767;BME280;46248;58.364;25.582;2022-09-13T04:23:42;100540.50;;;9.55;81.95
59767;BME280;46248;58.364;25.582;2022-09-13T04:27:06;100552.53;;;9.59;82.12
59767;BME280;46248;58.364;25.582;2022-09-13T04:30:29;100543.91;;;9.57;82.04
59767;BME280;46248;58.364;25.582;2022-09-13T04:33:52;100549.16;;;9.57;82.39
59767;BME280;46248;58.364;25.582;2022-09-13T04:37:15;100558.94;;;9.52;82.64
59767;BME280;46248;58.364;25.582;2022-09-13T04:40:38;100551.25;;;9.49;82.50
59767;BME280;46248;58.364;25.582;2022-09-13T04:44:03;100542.28;;;9.55;82.65
59767;BME280;46248;58.364;25.582;2022-09-13T04:47:26;100531.81;;;9.55;82.38
59767;BME280;46248;58.364;25.582;2022-09-13T04:50:49;100542.69;;;9.64;82.24
59767;BME280;46248;58.364;25.582;2022-09-13T04:54:12;100534.72;;;9.68;82.31
59767;BME280;46248;58.364;25.582;2022-09-13T04:57:36;100530.97;;;9.73;81.74
59767;BME280;46248;58.364;25.582;2022-09-13T05:01:04;100531.81;;;9.74;82.08
59767;BME280;46248;58.364;25.582;2022-09-13T05:04:27;100527.31;;;9.77;82.49
59767;BME280;46248;58.364;25.582;2022-09-13T05:07:51;100522.06;;;9.77;81.71
59767;BME280;46248;58.364;25.582;2022-09-13T05:11:13;100526.28;;;9.80;81.65
59767;BME280;46248;58.364;25.582;2022-09-13T05:14:37;100520.22;;;9.79;81.48
59767;BME280;46248;58.364;25.582;2022-09-13T05:18:02;100514.91;;;9.81;81.63
59767;BME280;46248;58.364;25.582;2022-09-13T05:21:25;100527.00;;;9.83;81.68
59767;BME280;46248;58.364;25.582;2022-09-13T05:24:48;100529.53;;;9.85;81.47
59767;BME280;46248;58.364;25.582;2022-09-13T05:28:11;100524.31;;;9.85;81.54
59767;BME280;46248;58.364;25.582;2022-09-13T05:31:37;100520.59;;;9.89;81.23
59767;BME280;46248;58.364;25.582;2022-09-13T05:35:02;100529.25;;;9.91;80.90
59767;BME280;46248;58.364;25.582;2022-09-13T05:38:26;100519.63;;;9.92;81.13
59767;BME280;46248;58.364;25.582;2022-09-13T05:41:49;100519.56;;;9.93;80.89
59767;BME280;46248;58.364;25.582;2022-09-13T05:45:16;100511.63;;;9.95;80.92
59767;BME280;46248;58.364;25.582;2022-09-13T05:48:39;100514.94;;;9.98;80.94
59767;BME280;46248;58.364;25.582;2022-09-13T05:52:04;100506.94;;;10.01;81.02
59767;BME280;46248;58.364;25.582;2022-09-13T05:55:27;100498.19;;;10.02;80.80
59767;BME280;46248;58.364;25.582;2022-09-13T05:58:51;100501.41;;;10.07;81.10
59767;BME280;46248;58.364;25.582;2022-09-13T06:02:14;100503.03;;;10.10;80.96
59767;BME280;46248;58.364;25.582;2022-09-13T06:05:37;100491.41;;;10.16;80.91
59767;BME280;46248;58.364;25.582;2022-09-13T06:09:02;100499.03;;;10.20;80.69
59767;BME280;46248;58.364;25.582;2022-09-13T06:12:27;100489.41;;;10.21;80.38
59767;BME280;46248;58.364;25.582;2022-09-13T06:15:50;100497.94;;;10.24;80.32
59767;BME280;46248;58.364;25.582;2022-09-13T06:19:13;100491.03;;;10.23;80.04
59767;BME280;46248;58.364;25.582;2022-09-13T06:22:36;100499.50;;;10.28;79.95
59767;BME280;46248;58.364;25.582;2022-09-13T06:26:03;100488.16;;;10.29;79.72
59767;BME280;46248;58.364;25.582;2022-09-13T06:29:25;100475.91;;;10.30;79.91
59767;BME280;46248;58.364;25.582;2022-09-13T06:32:48;100477.25;;;10.37;80.07
59767;BME280;46248;58.364;25.582;2022-09-13T06:36:12;100464.19;;;10.37;79.70
59767;BME280;46248;58.364;25.582;2022-09-13T06:39:37;100470.41;;;10.52;79.55
59767;BME280;46248;58.364;25.582;2022-09-13T06:43:01;100472.69;;;10.58;79.48
59767;BME280;46248;58.364;25.582;2022-09-13T06:46:26;100466.16;;;10.67;79.33
59767;BME280;46248;58.364;25.582;2022-09-13T06:49:50;100457.81;;;10.76;79.03
59767;BME280;46248;58.364;25.582;2022-09-13T06:53:14;100461.72;;;10.85;78.77
59767;BME280;46248;58.364;25.582;2022-09-13T06:56:38;100464.84;;;10.91;78.36
59767;BME280;46248;58.364;25.582;2022-09-13T07:00:03;100460.81;;;11.02;78.39
59767;BME280;46248;58.364;25.582;2022-09-13T07:03:26;100459.38;;;11.12;78.29
59767;BME280;46248;58.364;25.582;2022-09-13T07:06:49;100457.09;;;11.21;78.00
59767;BME280;46248;58.364;25.582;2022-09-13T07:10:13;100453.97;;;11.31;77.71
59767;BME280;46248;58.364;25.582;2022-09-13T07:13:36;100450.94;;;11.38;77.47
59767;BME280;46248;58.364;25.582;2022-09-13T07:17:01;100442.63;;;11.46;77.17
59767;BME280;46248;58.364;25.582;2022-09-13T07:20:25;100436.88;;;11.55;76.50
59767;BME280;46248;58.364;25.582;2022-09-13T07:23:48;100438.88;;;11.66;76.45
59767;BME280;46248;58.364;25.582;2022-09-13T07:27:11;100439.31;;;11.74;76.01
59767;BME280;46248;58.364;25.582;2022-09-13T07:30:36;100433.88;;;11.77;75.39
59767;BME280;46248;58.364;25.582;2022-09-13T07:34:03;100428.03;;;11.88;75.62
59767;BME280;46248;58.364;25.582;2022-09-13T07:37:26;100427.59;;;11.96;75.17
59767;BME280;46248;58.364;25.582;2022-09-13T07:40:54;100413.94;;;12.05;74.61
59767;BME280;46248;58.364;25.582;2022-09-13T07:44:18;100419.00;;;12.22;74.76
59767;BME280;46248;58.364;25.582;2022-09-13T07:47:41;100414.63;;;12.37;73.60
59767;BME280;46248;58.364;25.582;2022-09-13T07:51:07;100403.66;;;12.45;73.18
59767;BME280;46248;58.364;25.582;2022-09-13T07:54:30;100407.41;;;12.55;72.73
59767;BME280;46248;58.364;25.582;2022-09-13T07:57:54;100407.50;;;12.68;72.57
59767;BME280;46248;58.364;25.582;2022-09-13T08:01:19;100396.97;;;12.82;71.56
59767;BME280;46248;58.364;25.582;2022-09-13T08:04:42;100395.19;;;12.82;71.39
59767;BME280;46248;58.364;25.582;2022-09-13T08:08:07;100393.25;;;12.86;71.24
59767;BME280;46248;58.364;25.582;2022-09-13T08:11:32;100389.56;;;12.89;71.26
59767;BME280;46248;58.364;25.582;2022-09-13T08:14:55;100381.28;;;12.95;71.10
59767;BME280;46248;58.364;25.582;2022-09-13T08:18:18;100382.03;;;12.97;71.06
59767;BME280;46248;58.364;25.582;2022-09-13T08:21:42;100377.22;;;13.03;71.65
59767;BME280;46248;58.364;25.582;2022-09-13T08:25:07;100373.72;;;13.17;70.66
59767;BME280;46248;58.364;25.582;2022-09-13T08:28:30;100367.72;;;13.29;69.79
59767;BME280;46248;58.364;25.582;2022-09-13T08:31:53;100370.69;;;13.38;69.63
59767;BME280;46248;58.364;25.582;2022-09-13T08:35:16;100366.91;;;13.42;69.40
59767;BME280;46248;58.364;25.582;2022-09-13T08:38:43;100362.91;;;13.49;69.62
59767;BME280;46248;58.364;25.582;2022-09-13T08:42:18;100372.00;;;13.58;69.07
59767;BME280;46248;58.364;25.582;2022-09-13T08:45:48;100367.50;;;13.60;68.87
59767;BME280;46248;58.364;25.582;2022-09-13T08:49:15;100362.50;;;13.55;69.06
59767;BME280;46248;58.364;25.582;2022-09-13T08:52:47;100364.63;;;13.50;68.83
59767;BME280;46248;58.364;25.582;2022-09-13T08:56:18;100364.28;;;13.42;68.38
59767;BME280;46248;58.364;25.582;2022-09-13T08:59:51;100362.13;;;13.34;69.22
59767;BME280;46248;58.364;25.582;2022-09-13T09:03:23;100366.88;;;13.29;69.26
59767;BME280;46248;58.364;25.582;2022-09-13T09:06:51;100366.22;;;13.25;70.08
59767;BME280;46248;58.364;25.582;2022-09-13T09:10:20;100350.91;;;13.18;70.11
59767;BME280;46248;58.364;25.582;2022-09-13T09:13:49;100360.03;;;13.12;70.49
59767;BME280;46248;58.364;25.582;2022-09-13T09:17:19;100353.28;;;13.08;70.71
59767;BME280;46248;58.364;25.582;2022-09-13T09:20:44;100352.44;;;13.07;70.17
59767;BME280;46248;58.364;25.582;2022-09-13T09:24:11;100348.22;;;13.05;70.66
59767;BME280;46248;58.364;25.582;2022-09-13T09:27:38;100340.72;;;13.13;70.52
59767;BME280;46248;58.364;25.582;2022-09-13T09:31:04;100347.03;;;13.23;70.78
59767;BME280;46248;58.364;25.582;2022-09-13T09:34:42;100334.91;;;13.35;69.34
59767;BME280;46248;58.364;25.582;2022-09-13T09:38:30;100338.72;;;13.44;68.96
59767;BME280;46248;58.364;25.582;2022-09-13T09:41:54;100330.53;;;13.48;68.28
59767;BME280;46248;58.364;25.582;2022-09-13T09:45:25;100341.25;;;13.45;68.31
59767;BME280;46248;58.364;25.582;2022-09-13T09:48:52;100340.59;;;13.42;68.81
59767;BME280;46248;58.364;25.582;2022-09-13T09:52:21;100337.78;;;13.45;68.81
59767;BME280;46248;58.364;25.582;2022-09-13T09:55:53;100333.97;;;13.36;68.02
59767;BME280;46248;58.364;25.582;2022-09-13T09:59:25;100329.22;;;13.28;67.38
59767;BME280;46248;58.364;25.582;2022-09-13T10:02:50;100333.13;;;13.21;68.35
59767;BME280;46248;58.364;25.582;2022-09-13T10:06:19;100330.00;;;13.16;68.54
59767;BME280;46248;58.364;25.582;2022-09-13T10:09:55;100333.13;;;13.21;68.45
59767;BME280;46248;58.364;25.582;2022-09-13T10:13:21;100316.09;;;13.14;68.22
59767;BME280;46248;58.364;25.582;2022-09-13T10:17:01;100323.78;;;13.17;67.96
59767;BME280;46248;58.364;25.582;2022-09-13T10:20:25;100312.91;;;13.09;68.80
59767;BME280;46248;58.364;25.582;2022-09-13T10:23:49;100312.06;;;13.09;68.95
59767;BME280;46248;58.364;25.582;2022-09-13T10:27:31;100307.22;;;13.02;68.89
59767;BME280;46248;58.364;25.582;2022-09-13T10:30:57;100302.84;;;12.89;70.17
59767;BME280;46248;58.364;25.582;2022-09-13T10:34:23;100314.72;;;12.67;71.66
59767;BME280;46248;58.364;25.582;2022-09-13T10:37:47;100321.56;;;12.55;72.27
59767;BME280;46248;58.364;25.582;2022-09-13T10:41:20;100314.38;;;12.45;72.73
59767;BME280;46248;58.364;25.582;2022-09-13T10:44:50;100306.13;;;12.36;73.14
59767;BME280;46248;58.364;25.582;2022-09-13T10:48:16;100312.13;;;12.38;73.55
59767;BME280;46248;58.364;25.582;2022-09-13T10:51:41;100299.84;;;12.39;72.63
59767;BME280;46248;58.364;25.582;2022-09-13T10:55:26;100301.16;;;12.46;72.70
59767;BME280;46248;58.364;25.582;2022-09-13T10:58:51;100277.44;;;12.48;71.64
59767;BME280;46248;58.364;25.582;2022-09-13T11:02:55;100287.34;;;12.71;70.59
59767;BME280;46248;58.364;25.582;2022-09-13T11:06:26;100278.03;;;12.80;70.05
59767;BME280;46248;58.364;25.582;2022-09-13T11:09:55;100291.09;;;12.94;68.39
59767;BME280;46248;58.364;25.582;2022-09-13T11:13:27;100278.78;;;12.95;67.71
59767;BME280;46248;58.364;25.582;2022-09-13T11:17:01;100280.28;;;12.99;67.55
59767;BME280;46248;58.364;25.582;2022-09-13T11:20:39;100267.34;;;12.96;67.88
59767;BME280;46248;58.364;25.582;2022-09-13T11:24:37;100272.50;;;12.97;67.76
59767;BME280;46248;58.364;25.582;2022-09-13T11:28:13;100264.16;;;12.91;68.19
59767;BME280;46248;58.364;25.582;2022-09-13T11:31:46;100259.88;;;12.90;67.71
59767;BME280;46248;58.364;25.582;2022-09-13T11:35:41;100262.97;;;12.82;67.81
59767;BME280;46248;58.364;25.582;2022-09-13T11:39:14;100251.75;;;12.80;67.98
59767;BME280;46248;58.364;25.582;2022-09-13T11:42:45;100257.28;;;12.75;67.57
59767;BME280;46248;58.364;25.582;2022-09-13T11:46:17;100254.84;;;12.72;68.53
59767;BME280;46248;58.364;25.582;2022-09-13T11:49:56;100249.69;;;12.71;68.38
59767;BME280;46248;58.364;25.582;2022-09-13T11:57:18;100244.63;;;12.68;68.58
59767;BME280;46248;58.364;25.582;2022-09-13T12:00:46;100239.47;;;12.66;68.73
59767;BME280;46248;58.364;25.582;2022-09-13T12:04:17;100231.50;;;12.68;68.65
59767;BME280;46248;58.364;25.582;2022-09-13T12:07:48;100224.38;;;12.70;68.53
59767;BME280;46248;58.364;25.582;2022-09-13T12:11:18;100228.59;;;12.72;68.44
59767;BME280;46248;58.364;25.582;2022-09-13T12:14:48;100227.53;;;12.75;68.10
59767;BME280;46248;58.364;25.582;2022-09-13T12:18:16;100224.59;;;12.79;68.04
59767;BME280;46248;58.364;25.582;2022-09-13T12:21:41;100228.09;;;12.80;67.72
59767;BME280;46248;58.364;25.582;2022-09-13T12:25:17;100229.34;;;12.74;67.78
59767;BME280;46248;58.364;25.582;2022-09-13T12:28:47;100227.44;;;12.76;67.95
59767;BME280;46248;58.364;25.582;2022-09-13T12:32:13;100221.75;;;12.70;68.42
59767;BME280;46248;58.364;25.582;2022-09-13T12:35:45;100216.59;;;12.68;68.85
59767;BME280;46248;58.364;25.582;2022-09-13T12:39:39;100220.97;;;12.68;69.01
59767;BME280;46248;58.364;25.582;2022-09-13T12:43:22;100207.22;;;12.64;68.82
59767;BME280;46248;58.364;25.582;2022-09-13T12:50:45;100199.97;;;12.68;69.06
59767;BME280;46248;58.364;25.582;2022-09-13T12:54:38;100204.31;;;12.69;68.96
59767;BME280;46248;58.364;25.582;2022-09-13T12:58:15;100195.03;;;12.63;69.14
59767;BME280;46248;58.364;25.582;2022-09-13T13:01:44;100192.69;;;12.58;69.42
59767;BME280;46248;58.364;25.582;2022-09-13T13:05:20;100199.72;;;12.58;69.90
59767;BME280;46248;58.364;25.582;2022-09-13T13:08:49;100191.13;;;12.56;69.67
59767;BME280;46248;58.364;25.582;2022-09-13T13:12:26;100186.72;;;12.56;70.01
59767;BME280;46248;58.364;25.582;2022-09-13T13:16:03;100180.63;;;12.56;69.66
59767;BME280;46248;58.364;25.582;2022-09-13T13:19:29;100181.06;;;12.63;69.53
59767;BME280;46248;58.364;25.582;2022-09-13T13:23:03;100164.19;;;12.52;69.73
59767;BME280;46248;58.364;25.582;2022-09-13T13:26:45;100174.09;;;12.61;70.77
59767;BME280;46248;58.364;25.582;2022-09-13T13:30:33;100166.22;;;12.61;70.61
59767;BME280;46248;58.364;25.582;2022-09-13T13:34:09;100153.00;;;12.63;70.38
59767;BME280;46248;58.364;25.582;2022-09-13T13:37:46;100154.34;;;12.56;70.44
59767;BME280;46248;58.364;25.582;2022-09-13T13:41:38;100149.19;;;12.54;71.06
59767;BME280;46248;58.364;25.582;2022-09-13T13:45:15;100143.00;;;12.55;71.32
59767;BME280;46248;58.364;25.582;2022-09-13T13:48:40;100149.31;;;12.53;70.90
59767;BME280;46248;58.364;25.582;2022-09-13T13:56:14;100143.50;;;12.48;71.56
59767;BME280;46248;58.364;25.582;2022-09-13T13:59:40;100140.56;;;12.52;71.26
59767;BME280;46248;58.364;25.582;2022-09-13T14:03:10;100135.22;;;12.54;71.48
59767;BME280;46248;58.364;25.582;2022-09-13T14:06:45;100130.81;;;12.54;71.31
59767;BME280;46248;58.364;25.582;2022-09-13T14:10:16;100120.22;;;12.56;72.01
59767;BME280;46248;58.364;25.582;2022-09-13T14:13:50;100120.94;;;12.58;71.60
59767;BME280;46248;58.364;25.582;2022-09-13T14:17:43;100112.22;;;12.57;71.82
59767;BME280;46248;58.364;25.582;2022-09-13T14:21:22;100106.22;;;12.55;71.63
59767;BME280;46248;58.364;25.582;2022-09-13T14:24:47;100105.38;;;12.55;71.43
59767;BME280;46248;58.364;25.582;2022-09-13T14:28:13;100102.25;;;12.50;72.25
59767;BME280;46248;58.364;25.582;2022-09-13T14:31:39;100098.31;;;12.43;72.18
59767;BME280;46248;58.364;25.582;2022-09-13T14:35:17;100093.19;;;12.41;72.10
59767;BME280;46248;58.364;25.582;2022-09-13T14:38:47;100091.78;;;12.35;72.41
59767;BME280;46248;58.364;25.582;2022-09-13T14:42:15;100091.16;;;12.32;72.38
59767;BME280;46248;58.364;25.582;2022-09-13T14:45:38;100084.94;;;12.33;73.20
59767;BME280;46248;58.364;25.582;2022-09-13T14:49:02;100083.38;;;12.30;73.40
59767;BME280;46248;58.364;25.582;2022-09-13T14:52:30;100081.06;;;12.26;74.11
59767;BME280;46248;58.364;25.582;2022-09-13T14:55:57;100077.75;;;12.22;74.53
59767;BME280;46248;58.364;25.582;2022-09-13T14:59:40;100068.53;;;12.17;75.10
59767;BME280;46248;58.364;25.582;2022-09-13T15:03:12;100077.25;;;12.17;74.99
59767;BME280;46248;58.364;25.582;2022-09-13T15:06:39;100073.97;;;12.13;75.49
59767;BME280;46248;58.364;25.582;2022-09-13T15:10:20;100059.47;;;12.08;75.97
59767;BME280;46248;58.364;25.582;2022-09-13T15:13:44;100061.47;;;12.04;75.46
59767;BME280;46248;58.364;25.582;2022-09-13T15:17:08;100064.09;;;12.04;75.48
59767;BME280;46248;58.364;25.582;2022-09-13T15:20:47;100062.38;;;12.03;76.19
59767;BME280;46248;58.364;25.582;2022-09-13T15:24:20;100052.19;;;11.99;75.10
59767;BME280;46248;58.364;25.582;2022-09-13T15:27:48;100047.97;;;11.96;75.15
59767;BME280;46248;58.364;25.582;2022-09-13T15:31:19;100040.75;;;12.00;75.54
59767;BME280;46248;58.364;25.582;2022-09-13T15:34:45;100028.56;;;11.99;75.07
59767;BME280;46248;58.364;25.582;2022-09-13T15:38:17;100026.78;;;11.99;74.96
59767;BME280;46248;58.364;25.582;2022-09-13T15:41:51;100034.09;;;11.94;74.73
59767;BME280;46248;58.364;25.582;2022-09-13T15:45:19;100031.47;;;11.94;74.99
59767;BME280;46248;58.364;25.582;2022-09-13T15:48:49;100026.56;;;11.89;74.76
59767;BME280;46248;58.364;25.582;2022-09-13T15:52:13;100029.38;;;11.86;74.79
59767;BME280;46248;58.364;25.582;2022-09-13T15:55:39;100029.44;;;11.85;75.03
59767;BME280;46248;58.364;25.582;2022-09-13T15:59:02;100025.22;;;11.82;75.09
59767;BME280;46248;58.364;25.582;2022-09-13T16:02:29;100014.06;;;11.79;75.47
59767;BME280;46248;58.364;25.582;2022-09-13T16:05:53;100013.44;;;11.75;74.92
59767;BME280;46248;58.364;25.582;2022-09-13T16:09:22;100009.22;;;11.73;74.87
59767;BME280;46248;58.364;25.582;2022-09-13T16:12:46;100006.72;;;11.71;74.81
59767;BME280;46248;58.364;25.582;2022-09-13T16:16:11;99999.69;;;11.72;74.91
59767;BME280;46248;58.364;25.582;2022-09-13T16:19:36;100002.50;;;11.68;75.09
59767;BME280;46248;58.364;25.582;2022-09-13T16:23:00;99991.38;;;11.65;75.33
59767;BME280;46248;58.364;25.582;2022-09-13T16:26:27;100001.94;;;11.63;75.40
59767;BME280;46248;58.364;25.582;2022-09-13T16:29:53;99995.94;;;11.61;75.03
59767;BME280;46248;58.364;25.582;2022-09-13T16:33:15;99987.44;;;11.58;75.39
59767;BME280;46248;58.364;25.582;2022-09-13T16:36:41;99991.09;;;11.55;75.23
59767;BME280;46248;58.364;25.582;2022-09-13T16:40:05;99987.75;;;11.53;75.81
59767;BME280;46248;58.364;25.582;2022-09-13T16:43:29;99990.66;;;11.49;75.55
59767;BME280;46248;58.364;25.582;2022-09-13T16:46:53;99993.38;;;11.47;75.96
59767;BME280;46248;58.364;25.582;2022-09-13T16:50:17;99998.81;;;11.44;76.03
59767;BME280;46248;58.364;25.582;2022-09-13T16:53:41;99997.13;;;11.43;76.46
59767;BME280;46248;58.364;25.582;2022-09-13T16:57:05;99986.94;;;11.38;76.49
59767;BME280;46248;58.364;25.582;2022-09-13T17:00:30;99987.03;;;11.37;76.48
59767;BME280;46248;58.364;25.582;2022-09-13T17:03:54;99986.19;;;11.36;76.52
59767;BME280;46248;58.364;25.582;2022-09-13T17:07:18;99987.13;;;11.35;76.90
59767;BME280;46248;58.364;25.582;2022-09-13T17:10:49;99981.97;;;11.34;76.87
59767;BME280;46248;58.364;25.582;2022-09-13T17:14:13;99987.31;;;11.32;76.74
59767;BME280;46248;58.364;25.582;2022-09-13T17:17:38;99979.53;;;11.31;77.02
59767;BME280;46248;58.364;25.582;2022-09-13T17:21:00;99972.72;;;11.28;77.19
59767;BME280;46248;58.364;25.582;2022-09-13T17:24:24;99964.97;;;11.27;77.39
59767;BME280;46248;58.364;25.582;2022-09-13T17:27:48;99952.06;;;11.23;77.71
59767;BME280;46248;58.364;25.582;2022-09-13T17:31:12;99960.75;;;11.24;77.55
59767;BME280;46248;58.364;25.582;2022-09-13T17:34:35;99969.63;;;11.21;78.07
59767;BME280;46248;58.364;25.582;2022-09-13T17:37:58;99947.28;;;11.16;78.31
59767;BME280;46248;58.364;25.582;2022-09-13T17:41:22;99950.53;;;11.19;78.20
59767;BME280;46248;58.364;25.582;2022-09-13T17:44:47;99941.13;;;11.17;78.54
59767;BME280;46248;58.364;25.582;2022-09-13T17:48:10;99951.50;;;11.18;78.69
59767;BME280;46248;58.364;25.582;2022-09-13T17:51:33;99953.28;;;11.18;78.45
59767;BME280;46248;58.364;25.582;2022-09-13T17:54:56;99941.41;;;11.12;78.62
59767;BME280;46248;58.364;25.582;2022-09-13T17:58:20;99933.44;;;11.14;78.70
59767;BME280;46248;58.364;25.582;2022-09-13T18:01:48;99933.44;;;11.14;79.24
59767;BME280;46248;58.364;25.582;2022-09-13T18:05:11;99929.13;;;11.13;79.05
59767;BME280;46248;58.364;25.582;2022-09-13T18:08:35;99924.84;;;11.12;79.10
59767;BME280;46248;58.364;25.582;2022-09-13T18:11:58;99923.34;;;11.08;79.94